Time;durP1;ratioP1;P1;durP2;ratioP2;P2;SDS_P1;SDS_P2;PMS_P1;PMS_P2;Temp;Humidity;BMP_temperature;BMP_pressure;BME280_temperature;BME280_humidity;BME280_pressure;Samples;Min_cycle;Max_cycle;Signal;HPM_P1;HPM_P2
2022/11/11 00:02:27;;;;;;;7.43;2.53;;;11.50;99.90;;;;;;5020379;28;21002;-79
2022/11/11 00:05:13;;;;;;;10.10;2.80;;;11.50;99.90;;;;;;5017082;28;20309;-78
2022/11/11 00:07:59;;;;;;;11.20;3.07;;;11.50;99.90;;;;;;5017664;28;20233;-79
2022/11/11 00:10:44;;;;;;;9.87;2.70;;;11.50;99.90;;;;;;5000197;28;20228;-78
2022/11/11 00:13:31;;;;;;;10.20;2.73;;;11.50;99.90;;;;;;4993732;28;20238;-78
2022/11/11 00:16:19;;;;;;;9.37;2.83;;;11.50;99.90;;;;;;4996984;28;20250;-78
2022/11/11 00:25:23;;;;;;;6.60;2.73;;;11.50;99.90;;;;;;4997387;28;20300;-77
2022/11/11 00:28:08;;;;;;;7.77;3.10;;;11.50;99.90;;;;;;4999311;28;20232;-78
2022/11/11 00:31:03;;;;;;;9.80;3.03;;;11.50;99.90;;;;;;5002924;28;20786;-79
2022/11/11 00:33:48;;;;;;;8.70;3.17;;;11.40;99.90;;;;;;4995153;28;20233;-79
2022/11/11 00:36:32;;;;;;;5.53;3.00;;;11.40;99.90;;;;;;5011014;28;20594;-78
2022/11/11 00:39:18;;;;;;;8.93;3.27;;;11.40;99.90;;;;;;5012281;28;20293;-78
2022/11/11 00:42:03;;;;;;;10.13;3.93;;;11.40;99.90;;;;;;5016923;28;20227;-78
2022/11/11 00:44:49;;;;;;;11.03;3.37;;;11.40;99.90;;;;;;5010858;28;20290;-78
2022/11/11 00:53:42;;;;;;;9.00;4.10;;;11.40;99.90;;;;;;5014329;28;20316;-78
2022/11/11 00:56:27;;;;;;;10.77;4.37;;;11.40;99.90;;;;;;5016289;28;20366;-79
2022/11/11 00:59:12;;;;;;;10.50;3.70;;;11.30;99.90;;;;;;5019356;28;20288;-80
2022/11/11 01:01:58;;;;;;;11.07;4.00;;;11.40;99.90;;;;;;5018871;28;20228;-80
2022/11/11 01:04:45;;;;;;;9.90;3.67;;;11.40;99.90;;;;;;5027029;28;20270;-79
2022/11/11 01:07:30;;;;;;;8.97;3.43;;;11.30;99.90;;;;;;5020439;28;20241;-79
2022/11/11 01:10:36;;;;;;;9.33;4.17;;;11.30;99.90;;;;;;5022095;28;20236;-80
2022/11/11 01:13:23;;;;;;;8.73;4.03;;;11.30;99.90;;;;;;5019575;28;20584;-80
2022/11/11 01:16:11;;;;;;;7.83;4.40;;;11.30;99.90;;;;;;5014320;28;20576;-79
2022/11/11 01:18:57;;;;;;;7.47;4.23;;;11.30;99.90;;;;;;5018509;28;20229;-78
2022/11/11 01:21:44;;;;;;;7.03;3.90;;;11.30;99.90;;;;;;5019602;28;20245;-78
2022/11/11 01:24:29;;;;;;;11.53;4.30;;;11.40;99.90;;;;;;5015942;28;20748;-78
2022/11/11 01:27:14;;;;;;;6.50;4.07;;;11.30;99.90;;;;;;5018550;28;20225;-79
2022/11/11 01:30:00;;;;;;;11.27;4.80;;;11.40;99.90;;;;;;5021960;28;20236;-78
2022/11/11 01:32:45;;;;;;;8.53;4.27;;;11.40;99.90;;;;;;5020788;28;20235;-79
2022/11/11 01:35:30;;;;;;;8.90;4.50;;;11.40;99.90;;;;;;5031300;28;20227;-80
2022/11/11 01:38:17;;;;;;;9.43;4.20;;;11.40;99.90;;;;;;5021650;28;20271;-80
2022/11/11 01:41:31;;;;;;;8.90;4.70;;;11.40;99.90;;;;;;5023869;28;20410;-80
2022/11/11 01:44:42;;;;;;;7.77;4.13;;;11.40;99.90;;;;;;5022911;28;20327;-81
2022/11/11 01:49:17;;;;;;;8.73;3.83;;;11.40;99.90;;;;;;5028788;28;20763;-80
2022/11/11 01:50:33;;;;;;;9.63;4.57;;;11.40;99.90;;;;;;5024798;28;20301;-80
2022/11/11 01:53:19;;;;;;;9.73;4.40;;;11.40;99.90;;;;;;5021175;28;20597;-80
2022/11/11 01:56:06;;;;;;;9.37;4.73;;;11.40;99.90;;;;;;5025346;28;20283;-79
2022/11/11 01:58:54;;;;;;;9.33;4.33;;;11.40;99.90;;;;;;5025930;28;20359;-81
2022/11/11 02:01:40;;;;;;;9.07;4.30;;;11.40;99.90;;;;;;5022341;28;20232;-81
2022/11/11 02:07:31;;;;;;;8.20;4.40;;;11.40;99.90;;;;;;5024705;28;20282;-81
2022/11/11 02:10:19;;;;;;;7.93;3.90;;;11.40;99.90;;;;;;5022434;28;20241;-81
2022/11/11 02:16:15;;;;;;;9.80;4.43;;;11.40;99.90;;;;;;5019209;28;20314;-81
2022/11/11 02:19:05;;;;;;;7.70;4.13;;;11.40;99.90;;;;;;5016212;28;20340;-81
2022/11/11 02:21:58;;;;;;;9.57;4.37;;;11.40;99.90;;;;;;5016644;28;20299;-82
2022/11/11 02:24:45;;;;;;;9.00;5.10;;;11.40;99.90;;;;;;5018328;28;20333;-82
2022/11/11 02:27:32;;;;;;;10.63;4.47;;;11.40;99.90;;;;;;5019357;28;20275;-81
2022/11/11 02:30:18;;;;;;;7.80;4.43;;;11.40;99.90;;;;;;5016726;28;20274;-82
2022/11/11 02:33:03;;;;;;;10.00;4.87;;;11.40;99.90;;;;;;5021138;28;20614;-82
2022/11/11 02:35:55;;;;;;;12.57;4.90;;;11.40;99.90;;;;;;5022586;28;20224;-80
2022/11/11 02:38:40;;;;;;;13.37;5.30;;;11.30;99.90;;;;;;5001181;28;20221;-81
2022/11/11 02:44:30;;;;;;;7.67;4.73;;;11.30;99.90;;;;;;5001228;28;20224;-81
2022/11/11 02:47:16;;;;;;;6.77;4.30;;;11.30;99.90;;;;;;4998893;28;20228;-81
2022/11/11 02:50:01;;;;;;;7.97;4.20;;;11.30;99.90;;;;;;5001408;28;20226;-81
2022/11/11 02:52:47;;;;;;;11.37;5.10;;;11.30;99.90;;;;;;5002318;28;20308;-82
2022/11/11 02:55:32;;;;;;;8.33;4.30;;;11.30;99.90;;;;;;5006670;28;20291;-82
2022/11/11 02:58:21;;;;;;;9.93;4.70;;;11.20;99.90;;;;;;5003278;28;20315;-81
2022/11/11 03:01:07;;;;;;;9.07;4.53;;;11.30;99.90;;;;;;5009115;28;20232;-81
2022/11/11 03:03:52;;;;;;;11.37;4.67;;;11.30;99.90;;;;;;5001991;28;20279;-81
2022/11/11 03:06:38;;;;;;;10.27;4.73;;;11.20;99.90;;;;;;4997714;28;20233;-81
2022/11/11 03:09:23;;;;;;;10.53;5.00;;;11.20;99.90;;;;;;5020450;28;20239;-80
2022/11/11 03:12:08;;;;;;;9.60;4.23;;;11.20;99.90;;;;;;5028503;28;20227;-80
2022/11/11 03:14:55;;;;;;;10.60;4.83;;;11.20;99.90;;;;;;5031002;28;20711;-80
2022/11/11 03:17:40;;;;;;;10.93;4.40;;;11.20;99.90;;;;;;5030458;28;20311;-79
2022/11/11 03:23:32;;;;;;;10.20;4.73;;;11.20;99.90;;;;;;5029586;28;20277;-79
2022/11/11 03:26:18;;;;;;;11.23;4.70;;;11.20;99.90;;;;;;5031191;28;20239;-80
2022/11/11 03:29:04;;;;;;;8.27;4.27;;;11.20;99.90;;;;;;5023988;28;20244;-81
2022/11/11 03:31:51;;;;;;;9.67;4.23;;;11.20;99.90;;;;;;5030601;28;20235;-81
2022/11/11 03:34:36;;;;;;;8.93;4.27;;;11.20;99.90;;;;;;5030487;28;20337;-81
2022/11/11 03:40:24;;;;;;;8.60;4.23;;;11.10;99.90;;;;;;5024423;28;20243;-81
2022/11/11 03:43:10;;;;;;;8.03;4.57;;;11.10;99.90;;;;;;5023104;28;20366;-81
2022/11/11 03:45:58;;;;;;;8.50;4.43;;;11.10;99.90;;;;;;5025759;28;20583;-81
2022/11/11 03:48:45;;;;;;;11.90;4.50;;;11.10;99.90;;;;;;5028030;28;20228;-81
2022/11/11 03:51:30;;;;;;;10.27;4.67;;;11.10;99.90;;;;;;5024772;28;20298;-81
2022/11/11 03:54:15;;;;;;;7.13;4.53;;;11.10;99.90;;;;;;5024782;28;20366;-81
2022/11/11 04:00:05;;;;;;;8.73;4.10;;;11.00;99.90;;;;;;5027131;28;20237;-81
2022/11/11 04:12:02;;;;;;;12.73;4.80;;;11.00;99.90;;;;;;5019962;28;20270;-81
2022/11/11 04:18:05;;;;;;;8.97;4.90;;;10.90;99.90;;;;;;4972244;28;20971;-81
2022/11/11 04:23:55;;;;;;;10.70;5.10;;;10.90;99.90;;;;;;5010430;28;20296;-81
2022/11/11 04:26:39;;;;;;;8.30;4.87;;;10.90;99.90;;;;;;5024801;28;20235;-81
2022/11/11 04:29:30;;;;;;;11.87;5.57;;;10.90;99.90;;;;;;5020934;28;20619;-81
2022/11/11 04:32:37;;;;;;;9.83;4.83;;;10.90;99.90;;;;;;5019327;28;20234;-81
2022/11/11 04:35:23;;;;;;;11.60;4.90;;;10.90;99.90;;;;;;5020764;28;20275;-81
2022/11/11 04:41:13;;;;;;;13.23;5.43;;;10.80;99.90;;;;;;5020933;28;20239;-81
2022/11/11 04:47:02;;;;;;;10.43;5.27;;;10.70;99.90;;;;;;5020472;28;20713;-80
2022/11/11 04:49:48;;;;;;;11.50;5.83;;;10.70;99.90;;;;;;5022727;28;20238;-81
2022/11/11 04:52:33;;;;;;;10.73;5.27;;;10.70;99.90;;;;;;5022407;28;20234;-79
2022/11/11 04:58:25;;;;;;;12.97;6.17;;;10.70;99.90;;;;;;5030255;28;20764;-81
2022/11/11 05:03:14;;;;;;;17.20;5.60;;;10.70;99.90;;;;;;5017823;28;20341;-80
2022/11/11 05:04:15;;;;;;;10.60;6.10;;;10.70;99.90;;;;;;5013485;28;20238;-81
2022/11/11 05:10:04;;;;;;;12.23;6.70;;;10.60;99.90;;;;;;5025804;28;20238;-80
2022/11/11 05:12:50;;;;;;;11.10;6.30;;;10.60;99.90;;;;;;5021226;28;20230;-81
2022/11/11 05:21:44;;;;;;;11.17;6.97;;;10.60;99.90;;;;;;5022737;28;20247;-80
2022/11/11 05:27:32;;;;;;;14.60;7.07;;;10.60;99.90;;;;;;5026765;28;20270;-78
2022/11/11 05:30:18;;;;;;;10.93;6.67;;;10.60;99.90;;;;;;5027136;28;20303;-78
2022/11/11 05:33:05;;;;;;;12.00;6.83;;;10.50;99.90;;;;;;5025538;28;20723;-78
2022/11/11 05:35:50;;;;;;;11.83;7.23;;;10.50;99.90;;;;;;5021638;28;20231;-78
2022/11/11 05:38:35;;;;;;;13.97;8.17;;;10.50;99.90;;;;;;5017345;28;20708;-78
2022/11/11 05:41:20;;;;;;;12.33;7.63;;;10.50;99.90;;;;;;5025945;28;20881;-78
2022/11/11 05:44:05;;;;;;;14.93;7.13;;;10.50;99.90;;;;;;5023165;28;20262;-78
2022/11/11 05:46:51;;;;;;;11.97;7.23;;;10.50;99.90;;;;;;5020128;28;20728;-78
2022/11/11 05:49:38;;;;;;;14.67;7.37;;;10.50;99.90;;;;;;5020980;28;20358;-78
2022/11/11 05:52:23;;;;;;;13.87;7.17;;;10.50;99.90;;;;;;5021504;28;20228;-78
2022/11/11 05:55:09;;;;;;;14.60;8.60;;;10.50;99.90;;;;;;5020752;28;20247;-78
2022/11/11 05:57:54;;;;;;;15.53;8.07;;;10.50;99.90;;;;;;5023833;28;20251;-78
2022/11/11 06:00:39;;;;;;;10.43;8.23;;;10.50;99.90;;;;;;5022898;28;20795;-78
2022/11/11 06:03:25;;;;;;;17.80;9.07;;;10.50;99.90;;;;;;5015881;28;20230;-78
2022/11/11 06:06:12;;;;;;;14.33;8.10;;;10.50;99.90;;;;;;5022178;28;20277;-78
2022/11/11 06:08:57;;;;;;;13.03;7.90;;;10.50;99.90;;;;;;5025338;28;20329;-79
2022/11/11 06:11:43;;;;;;;13.70;9.17;;;10.50;99.90;;;;;;5030093;28;20309;-79
2022/11/11 06:14:28;;;;;;;16.30;9.00;;;10.50;99.90;;;;;;5025874;28;20397;-77
2022/11/11 06:17:13;;;;;;;16.43;8.87;;;10.50;99.90;;;;;;5024371;28;20227;-79
2022/11/11 06:19:58;;;;;;;15.33;8.63;;;10.50;99.90;;;;;;5022032;28;20240;-83
2022/11/11 06:22:57;;;;;;;14.00;9.00;;;10.50;99.90;;;;;;5023691;28;20671;-81
2022/11/11 06:28:49;;;;;;;16.70;10.20;;;10.50;99.90;;;;;;5024266;28;21167;-81
2022/11/11 06:31:34;;;;;;;16.13;10.40;;;10.50;99.90;;;;;;5023568;28;20294;-81
2022/11/11 06:34:20;;;;;;;15.27;9.37;;;10.40;99.90;;;;;;5015472;28;20233;-81
2022/11/11 06:37:05;;;;;;;15.87;9.87;;;10.40;99.90;;;;;;5022303;28;20428;-81
2022/11/11 06:39:51;;;;;;;15.70;9.73;;;10.40;99.90;;;;;;5021585;28;20235;-81
2022/11/11 06:42:38;;;;;;;16.17;9.67;;;10.40;99.90;;;;;;5024460;28;20551;-81
2022/11/11 06:45:23;;;;;;;16.30;9.20;;;10.40;99.90;;;;;;5024692;28;20235;-81
2022/11/11 06:48:09;;;;;;;16.50;9.93;;;10.40;99.90;;;;;;5024408;28;20714;-81
2022/11/11 06:50:55;;;;;;;16.10;9.67;;;10.40;99.90;;;;;;5013926;28;20240;-81
2022/11/11 06:53:41;;;;;;;18.43;10.60;;;10.40;99.90;;;;;;5019943;28;20247;-81
2022/11/11 06:56:28;;;;;;;17.93;10.53;;;10.40;99.90;;;;;;5021199;28;20227;-81
2022/11/11 06:59:13;;;;;;;16.07;9.97;;;10.40;99.90;;;;;;5019472;28;20235;-81
2022/11/11 07:01:58;;;;;;;17.90;10.57;;;10.40;99.90;;;;;;5019526;28;20752;-81
2022/11/11 07:04:44;;;;;;;16.77;10.47;;;10.40;99.90;;;;;;5024760;28;20227;-81
2022/11/11 07:07:30;;;;;;;19.87;10.80;;;10.40;99.90;;;;;;5022971;28;20305;-81
2022/11/11 07:10:16;;;;;;;16.13;10.90;;;10.40;99.90;;;;;;5024525;28;20235;-81
2022/11/11 07:13:05;;;;;;;18.70;11.40;;;10.40;99.90;;;;;;5011278;28;20220;-81
2022/11/11 07:15:51;;;;;;;19.40;10.37;;;10.40;99.90;;;;;;5016678;28;20260;-82
2022/11/11 07:18:36;;;;;;;15.80;10.70;;;10.40;99.90;;;;;;5023051;28;20451;-81
2022/11/11 07:21:24;;;;;;;24.07;12.20;;;10.40;99.90;;;;;;5018298;28;20239;-81
2022/11/11 07:24:09;;;;;;;21.97;10.77;;;10.40;99.90;;;;;;5010070;28;20647;-81
2022/11/11 07:26:55;;;;;;;17.33;11.50;;;10.30;99.90;;;;;;5027806;28;20227;-81
2022/11/11 07:29:42;;;;;;;21.20;11.80;;;10.30;99.90;;;;;;5019698;28;20297;-81
2022/11/11 07:32:27;;;;;;;19.60;11.80;;;10.30;99.90;;;;;;5023676;28;20228;-81
2022/11/11 07:35:14;;;;;;;16.40;11.10;;;10.20;99.90;;;;;;5015253;28;20310;-81
2022/11/11 07:37:59;;;;;;;18.90;11.63;;;10.30;99.90;;;;;;5023832;28;20234;-81
2022/11/11 07:40:44;;;;;;;18.50;11.47;;;10.20;99.90;;;;;;5022742;28;20295;-81
2022/11/11 07:43:29;;;;;;;22.50;11.10;;;10.20;99.90;;;;;;5019397;28;20235;-81
2022/11/11 07:46:16;;;;;;;23.47;11.87;;;10.20;99.90;;;;;;5024064;28;20230;-81
2022/11/11 07:49:02;;;;;;;19.07;11.63;;;10.20;99.90;;;;;;5018165;28;20244;-81
2022/11/11 07:51:47;;;;;;;19.80;11.40;;;10.20;99.90;;;;;;5023099;28;20565;-81
2022/11/11 07:54:33;;;;;;;19.27;11.97;;;10.20;99.90;;;;;;5020406;28;20718;-81
2022/11/11 07:57:21;;;;;;;19.73;12.10;;;10.20;99.90;;;;;;5020188;28;20389;-81
2022/11/11 08:00:11;;;;;;;20.70;12.30;;;10.30;99.90;;;;;;5025087;28;20294;-81
2022/11/11 08:02:58;;;;;;;19.00;12.50;;;10.30;99.90;;;;;;5023751;28;20234;-81
2022/11/11 08:05:43;;;;;;;20.20;12.33;;;10.20;99.90;;;;;;5024339;28;21000;-81
2022/11/11 08:08:28;;;;;;;23.17;13.23;;;10.20;99.90;;;;;;5020369;28;20248;-81
2022/11/11 08:11:16;;;;;;;18.77;12.43;;;10.30;99.90;;;;;;5022458;28;20239;-81
2022/11/11 08:14:03;;;;;;;24.03;12.83;;;10.20;99.90;;;;;;5020759;28;20216;-81
2022/11/11 08:16:51;;;;;;;18.73;13.00;;;10.30;99.90;;;;;;5019110;28;20235;-81
2022/11/11 08:19:38;;;;;;;20.83;13.63;;;10.30;99.90;;;;;;5017937;28;20785;-81
2022/11/11 08:22:23;;;;;;;20.23;13.33;;;10.30;99.90;;;;;;5017438;28;20242;-81
2022/11/11 08:25:13;;;;;;;20.87;12.93;;;10.30;99.90;;;;;;5018896;28;20966;-81
2022/11/11 08:28:00;;;;;;;22.70;13.57;;;10.30;99.90;;;;;;5017457;28;20239;-81
2022/11/11 08:30:47;;;;;;;27.83;14.30;;;10.30;99.90;;;;;;5019549;28;20601;-81
2022/11/11 08:33:32;;;;;;;27.13;13.33;;;10.30;99.90;;;;;;5021494;28;20984;-81
2022/11/11 08:36:19;;;;;;;27.50;13.67;;;10.30;99.90;;;;;;5022981;28;20233;-81
2022/11/11 08:39:05;;;;;;;20.47;14.23;;;10.30;99.90;;;;;;5015731;28;20238;-81
2022/11/11 08:41:50;;;;;;;22.43;13.10;;;10.40;99.90;;;;;;5024171;28;20254;-81
2022/11/11 08:44:36;;;;;;;26.93;14.70;;;10.40;99.90;;;;;;5021644;28;20442;-81
2022/11/11 08:47:21;;;;;;;18.83;12.67;;;10.40;99.90;;;;;;5024908;28;20231;-80
2022/11/11 08:50:07;;;;;;;22.03;13.93;;;10.50;99.90;;;;;;5018985;28;20747;-81
2022/11/11 08:52:54;;;;;;;20.90;12.93;;;10.50;99.90;;;;;;5021445;28;20314;-81
2022/11/11 08:55:39;;;;;;;21.67;13.13;;;10.50;99.90;;;;;;5019758;28;20233;-81
2022/11/11 08:58:25;;;;;;;22.17;13.07;;;10.50;99.90;;;;;;5020604;28;20236;-81
2022/11/11 09:01:15;;;;;;;19.10;12.30;;;10.60;99.90;;;;;;5016725;28;20232;-81
2022/11/11 09:04:00;;;;;;;23.30;12.97;;;10.60;99.90;;;;;;5019878;28;20312;-81
2022/11/11 09:06:47;;;;;;;23.10;13.27;;;10.60;99.90;;;;;;5023034;28;20364;-81
2022/11/11 09:09:34;;;;;;;21.63;12.63;;;10.60;99.90;;;;;;5021453;28;20693;-81
2022/11/11 09:12:19;;;;;;;16.93;13.30;;;10.70;99.90;;;;;;5018431;28;20224;-81
2022/11/11 09:15:06;;;;;;;19.60;12.40;;;10.70;99.90;;;;;;5020317;28;20221;-81
2022/11/11 09:17:51;;;;;;;23.57;12.87;;;10.70;99.90;;;;;;5021961;28;20237;-80
2022/11/11 09:20:37;;;;;;;22.13;12.83;;;10.80;99.90;;;;;;5021851;28;20228;-80
2022/11/11 09:23:22;;;;;;;19.83;12.37;;;10.80;99.90;;;;;;5017736;28;20774;-80
2022/11/11 09:26:09;;;;;;;22.43;13.43;;;10.80;99.90;;;;;;5019375;28;20232;-80
2022/11/11 09:28:54;;;;;;;24.70;13.97;;;10.90;99.90;;;;;;5022265;28;20228;-80
2022/11/11 09:31:40;;;;;;;18.47;12.73;;;10.90;99.90;;;;;;5019113;28;20224;-80
2022/11/11 09:34:25;;;;;;;21.50;12.37;;;10.90;99.90;;;;;;5025848;28;20306;-80
2022/11/11 09:37:10;;;;;;;24.13;13.57;;;11.00;99.90;;;;;;5019392;28;20291;-80
2022/11/11 09:39:55;;;;;;;18.20;12.17;;;11.00;99.90;;;;;;5026122;28;20224;-80
2022/11/11 09:42:48;;;;;;;17.17;12.23;;;11.00;99.90;;;;;;5025150;28;20239;-80
2022/11/11 09:45:41;;;;;;;19.03;12.77;;;11.00;99.90;;;;;;5025800;28;20567;-80
2022/11/11 09:48:40;;;;;;;18.83;13.57;;;11.00;99.90;;;;;;5026649;28;21092;-80
2022/11/11 09:51:31;;;;;;;19.60;12.47;;;11.00;99.90;;;;;;5022648;28;20593;-80
2022/11/11 09:54:26;;;;;;;20.70;13.50;;;11.00;99.90;;;;;;5023549;28;20731;-79
2022/11/11 09:57:17;;;;;;;22.37;13.17;;;11.00;99.90;;;;;;5025011;28;20356;-80
2022/11/11 10:00:07;;;;;;;18.03;13.77;;;11.10;99.90;;;;;;5020770;28;20240;-80
2022/11/11 10:02:55;;;;;;;18.47;12.93;;;11.10;99.90;;;;;;5026257;28;20742;-80
2022/11/11 10:05:45;;;;;;;22.03;13.23;;;11.10;99.90;;;;;;5023802;28;20227;-80
2022/11/11 10:08:36;;;;;;;20.50;12.63;;;11.10;99.90;;;;;;5024185;28;20238;-80
2022/11/11 10:11:29;;;;;;;19.87;12.67;;;11.10;99.90;;;;;;5024654;28;20252;-80
2022/11/11 10:14:16;;;;;;;21.57;13.23;;;11.10;99.90;;;;;;5018611;28;20809;-80
2022/11/11 10:17:11;;;;;;;20.13;12.80;;;11.10;99.90;;;;;;5019387;28;20246;-80
2022/11/11 10:20:07;;;;;;;17.63;12.57;;;11.10;99.90;;;;;;5023005;28;20235;-80
2022/11/11 10:23:03;;;;;;;18.67;13.90;;;11.10;99.90;;;;;;5024909;28;20268;-80
2022/11/11 10:25:52;;;;;;;19.90;12.80;;;11.10;99.90;;;;;;5026216;28;20242;-80
2022/11/11 10:28:44;;;;;;;18.30;12.20;;;11.10;99.90;;;;;;5023889;28;20421;-80
2022/11/11 10:31:29;;;;;;;18.37;12.73;;;11.10;99.90;;;;;;5021601;28;20235;-80
2022/11/11 10:34:19;;;;;;;19.83;12.87;;;11.10;99.90;;;;;;5019632;28;20225;-80
2022/11/11 10:37:17;;;;;;;18.87;11.47;;;11.10;99.90;;;;;;5025987;28;20290;-80
2022/11/11 10:40:10;;;;;;;17.67;11.60;;;11.10;99.90;;;;;;5021956;28;20349;-80
2022/11/11 10:42:55;;;;;;;15.63;10.90;;;11.20;99.90;;;;;;5025870;28;20228;-80
2022/11/11 10:45:46;;;;;;;24.53;12.90;;;11.20;99.90;;;;;;5018775;28;20322;-80
2022/11/11 10:48:39;;;;;;;19.13;12.10;;;11.30;99.90;;;;;;5020103;28;20591;-80
2022/11/11 10:51:31;;;;;;;16.27;11.07;;;11.30;99.90;;;;;;5022859;28;20236;-80
2022/11/11 10:54:19;;;;;;;19.40;11.13;;;11.30;99.90;;;;;;5019940;28;20229;-80
2022/11/11 10:57:14;;;;;;;16.00;11.30;;;11.40;99.90;;;;;;5023250;28;20294;-80
2022/11/11 11:00:05;;;;;;;19.30;12.13;;;11.40;99.90;;;;;;5018262;28;20240;-80
2022/11/11 11:02:58;;;;;;;15.10;10.60;;;11.40;99.90;;;;;;5022446;28;20232;-80
2022/11/11 11:05:50;;;;;;;16.17;12.13;;;11.40;99.90;;;;;;5022356;28;20502;-80
2022/11/11 11:08:43;;;;;;;18.13;12.07;;;11.40;99.90;;;;;;5022310;28;20236;-80
2022/11/11 11:11:36;;;;;;;15.53;11.13;;;11.40;99.90;;;;;;5024812;28;20724;-80
2022/11/11 11:14:27;;;;;;;16.83;11.27;;;11.40;99.90;;;;;;5019635;28;20307;-80
2022/11/11 11:17:17;;;;;;;17.67;11.90;;;11.50;99.90;;;;;;5023706;28;20228;-80
2022/11/11 11:20:12;;;;;;;23.80;11.60;;;11.40;99.90;;;;;;5019724;28;20265;-80
2022/11/11 11:23:00;;;;;;;17.07;11.60;;;11.40;99.90;;;;;;5023351;28;20270;-80
2022/11/11 11:25:53;;;;;;;16.40;11.60;;;11.40;99.90;;;;;;5022821;28;20302;-80
2022/11/11 11:28:54;;;;;;;18.33;11.40;;;11.40;99.90;;;;;;5023584;28;20232;-80
2022/11/11 11:31:41;;;;;;;15.60;12.30;;;11.40;99.90;;;;;;5024405;28;20229;-83
2022/11/11 11:34:45;;;;;;;19.57;12.60;;;11.50;99.90;;;;;;5026388;28;20233;-82
2022/11/11 11:37:30;;;;;;;21.63;12.87;;;11.50;99.90;;;;;;5024424;28;20759;-82
2022/11/11 11:40:16;;;;;;;19.93;11.27;;;11.50;99.90;;;;;;5020356;28;20223;-85
2022/11/11 11:43:25;;;;;;;17.17;11.63;;;11.50;99.90;;;;;;5018280;28;20244;-82
2022/11/11 11:46:18;;;;;;;20.63;12.43;;;11.50;99.90;;;;;;5018681;28;20224;-83
2022/11/11 11:49:19;;;;;;;18.90;12.07;;;11.50;99.90;;;;;;5023661;28;20232;-84
2022/11/11 11:52:12;;;;;;;17.00;11.50;;;11.50;99.90;;;;;;5020820;28;20252;-83
2022/11/11 11:55:04;;;;;;;20.33;11.70;;;11.50;99.90;;;;;;5024464;28;20235;-81
2022/11/11 11:58:15;;;;;;;18.77;12.30;;;11.50;99.90;;;;;;5011130;28;20630;-83
2022/11/11 12:01:05;;;;;;;19.67;11.57;;;11.50;99.90;;;;;;5021761;28;20224;-81
2022/11/11 12:04:26;;;;;;;17.47;11.70;;;11.60;99.90;;;;;;5024920;28;20237;-82
2022/11/11 12:07:21;;;;;;;17.23;11.70;;;11.60;99.90;;;;;;5018383;28;20648;-81
2022/11/11 12:10:20;;;;;;;18.30;12.23;;;11.60;99.90;;;;;;5022979;28;20232;-81
2022/11/11 12:13:18;;;;;;;20.30;11.77;;;11.60;99.90;;;;;;5015916;28;20415;-81
2022/11/11 12:16:17;;;;;;;15.37;12.07;;;11.60;99.90;;;;;;5016813;28;20224;-80
2022/11/11 12:19:21;;;;;;;19.83;12.80;;;11.60;99.90;;;;;;5021322;28;20593;-83
2022/11/11 12:22:20;;;;;;;18.20;12.27;;;11.60;99.90;;;;;;5021326;28;20330;-81
2022/11/11 12:25:14;;;;;;;20.50;12.70;;;11.60;99.90;;;;;;5018828;28;20782;-83
2022/11/11 12:28:05;;;;;;;21.90;13.40;;;11.60;99.90;;;;;;5012597;28;20285;-83
2022/11/11 12:31:00;;;;;;;17.33;12.70;;;11.60;99.90;;;;;;5021872;28;20334;-81
2022/11/11 12:34:06;;;;;;;17.13;13.17;;;11.60;99.90;;;;;;5022361;28;20232;-84
2022/11/11 12:37:00;;;;;;;16.43;12.43;;;11.60;99.90;;;;;;5022202;28;20775;-81
2022/11/11 12:40:00;;;;;;;19.10;12.90;;;11.60;99.90;;;;;;5021693;28;20833;-82
2022/11/11 12:43:02;;;;;;;17.23;11.30;;;11.60;99.90;;;;;;5023761;28;20271;-82
2022/11/11 12:45:51;;;;;;;17.87;12.17;;;11.60;99.90;;;;;;5024432;28;20235;-82
2022/11/11 12:48:53;;;;;;;18.47;11.27;;;11.60;99.90;;;;;;5025199;28;20555;-81
2022/11/11 12:51:54;;;;;;;16.77;11.40;;;11.50;99.90;;;;;;5019083;28;20782;-81
2022/11/11 12:54:52;;;;;;;14.20;11.23;;;11.50;99.90;;;;;;5016718;28;20231;-84
2022/11/11 12:57:50;;;;;;;14.80;10.70;;;11.50;99.90;;;;;;5020191;28;20232;-84
2022/11/11 13:00:43;;;;;;;16.80;11.27;;;11.50;99.90;;;;;;5023152;28;20224;-85
2022/11/11 13:03:52;;;;;;;16.37;11.13;;;11.50;99.90;;;;;;5024566;28;20759;-83
2022/11/11 13:07:00;;;;;;;14.20;10.33;;;11.50;99.90;;;;;;5022174;28;20239;-82
2022/11/11 13:10:00;;;;;;;16.73;11.67;;;11.50;99.90;;;;;;5013262;28;20232;-83
2022/11/11 13:12:52;;;;;;;13.50;10.57;;;11.50;99.90;;;;;;5017573;28;20220;-80
2022/11/11 13:15:37;;;;;;;18.20;10.87;;;11.50;99.90;;;;;;5023261;28;20227;-80
2022/11/11 13:18:28;;;;;;;13.50;10.80;;;11.50;99.90;;;;;;5022652;28;20231;-80
2022/11/11 13:21:19;;;;;;;14.43;11.10;;;11.60;99.90;;;;;;5022107;28;20581;-81
2022/11/11 13:24:09;;;;;;;16.57;11.73;;;11.60;99.90;;;;;;5018528;28;20253;-81
2022/11/11 13:27:03;;;;;;;14.23;11.10;;;11.50;99.90;;;;;;5024070;28;20407;-82
2022/11/11 13:30:05;;;;;;;14.17;11.17;;;11.60;99.90;;;;;;5022094;28;20358;-80
2022/11/11 13:32:58;;;;;;;15.23;11.13;;;11.60;99.90;;;;;;5019859;28;20579;-81
2022/11/11 13:35:46;;;;;;;12.33;10.53;;;11.60;99.90;;;;;;5020235;28;20231;-80
2022/11/11 13:38:36;;;;;;;17.83;11.73;;;11.50;99.90;;;;;;5009320;28;20288;-78
2022/11/11 13:41:27;;;;;;;14.87;11.27;;;11.50;99.90;;;;;;5019068;28;20801;-80
2022/11/11 13:44:21;;;;;;;15.37;10.87;;;11.50;99.90;;;;;;5019731;28;20232;-80
2022/11/11 13:47:14;;;;;;;14.13;10.80;;;11.50;99.90;;;;;;5025247;28;20225;-83
2022/11/11 13:50:05;;;;;;;16.20;11.13;;;11.50;99.90;;;;;;5021305;28;20244;-81
2022/11/11 13:52:57;;;;;;;15.10;10.67;;;11.50;99.90;;;;;;5021868;28;20227;-81
2022/11/11 13:55:48;;;;;;;16.90;11.83;;;11.50;99.90;;;;;;5015245;28;20232;-80
2022/11/11 13:58:37;;;;;;;14.90;11.50;;;11.50;99.90;;;;;;5008715;28;20240;-81
2022/11/11 14:01:39;;;;;;;14.17;10.83;;;11.50;99.90;;;;;;5021025;28;20364;-81
2022/11/11 14:04:24;;;;;;;13.77;10.97;;;11.50;99.90;;;;;;5010722;28;20232;-81
2022/11/11 14:07:10;;;;;;;13.03;10.80;;;11.50;99.90;;;;;;5019743;28;20237;-82
2022/11/11 14:10:01;;;;;;;13.70;11.53;;;11.50;99.90;;;;;;5018899;28;20313;-81
2022/11/11 14:12:54;;;;;;;12.73;10.90;;;11.50;99.90;;;;;;5020548;28;20330;-80
2022/11/11 14:15:43;;;;;;;15.27;11.37;;;11.60;99.90;;;;;;5019340;28;20229;-82
2022/11/11 14:18:41;;;;;;;14.63;11.23;;;11.60;99.90;;;;;;5014083;28;20239;-80
2022/11/11 14:21:45;;;;;;;16.20;10.90;;;11.60;99.90;;;;;;5018308;28;20291;-81
2022/11/11 14:24:36;;;;;;;12.43;10.47;;;11.60;99.90;;;;;;5023267;28;20231;-81
2022/11/11 14:27:25;;;;;;;14.20;11.40;;;11.60;99.90;;;;;;5022029;28;20280;-82
2022/11/11 14:30:37;;;;;;;15.43;11.40;;;11.50;99.90;;;;;;5025569;28;20303;-81
2022/11/11 14:33:36;;;;;;;16.63;12.10;;;11.60;99.90;;;;;;5023093;28;20245;-84
2022/11/11 14:36:28;;;;;;;14.93;11.67;;;11.50;99.90;;;;;;5020500;28;20654;-82
2022/11/11 14:39:28;;;;;;;14.40;11.07;;;11.50;99.90;;;;;;5022705;28;20228;-81
2022/11/11 14:42:45;;;;;;;14.67;11.90;;;11.40;99.90;;;;;;5024430;28;20657;-80
2022/11/11 14:46:03;;;;;;;17.27;12.00;;;11.50;99.90;;;;;;5005563;28;20230;-80
2022/11/11 14:49:07;;;;;;;14.63;11.70;;;11.40;99.90;;;;;;5005335;28;20237;-82
2022/11/11 14:51:58;;;;;;;18.27;13.00;;;11.40;99.90;;;;;;5009238;28;20298;-81
2022/11/11 14:54:57;;;;;;;15.40;12.43;;;11.40;99.90;;;;;;5004162;28;20584;-83
2022/11/11 14:57:47;;;;;;;16.23;12.67;;;11.40;99.90;;;;;;5005278;28;20245;-83
2022/11/11 15:00:46;;;;;;;17.27;12.50;;;11.40;99.90;;;;;;5004661;28;20258;-84
2022/11/11 15:03:48;;;;;;;16.60;11.57;;;11.40;99.90;;;;;;5006697;28;20403;-82
2022/11/11 15:06:40;;;;;;;17.63;12.63;;;11.40;99.90;;;;;;5004037;28;22237;-85
2022/11/11 15:09:40;;;;;;;15.00;11.87;;;11.40;99.90;;;;;;5005297;28;20706;-82
2022/11/11 15:12:38;;;;;;;17.97;11.80;;;11.40;99.90;;;;;;5002528;28;20228;-84
2022/11/11 15:15:27;;;;;;;14.93;12.23;;;11.40;99.90;;;;;;5008059;28;20242;-83
2022/11/11 15:18:28;;;;;;;15.37;12.83;;;11.40;99.90;;;;;;5019501;28;20232;-80
2022/11/11 15:21:26;;;;;;;14.77;13.17;;;11.40;99.90;;;;;;5016220;28;20426;-82
2022/11/11 15:24:26;;;;;;;16.13;12.33;;;11.40;99.90;;;;;;5023859;28;20343;-82
2022/11/11 15:27:27;;;;;;;22.23;13.50;;;11.40;99.90;;;;;;5028705;28;20302;-82
2022/11/11 15:30:15;;;;;;;17.63;11.73;;;11.40;99.90;;;;;;5026145;28;20259;-81
2022/11/11 15:33:11;;;;;;;17.47;11.73;;;11.40;99.90;;;;;;5026062;28;20305;-83
2022/11/11 15:36:04;;;;;;;14.67;11.60;;;11.40;99.90;;;;;;5026033;28;20242;-82
2022/11/11 15:38:51;;;;;;;16.93;12.03;;;11.40;99.90;;;;;;5029828;28;20237;-83
2022/11/11 15:41:39;;;;;;;16.13;12.20;;;11.40;99.90;;;;;;5026829;28;20229;-85